Time;durP1;ratioP1;P1;durP2;ratioP2;P2;SDS_P1;SDS_P2;PMS_P1;PMS_P2;Temp;Humidity;BMP_temperature;BMP_pressure;BME280_temperature;BME280_humidity;BME280_pressure;Samples;Min_cycle;Max_cycle;Signal;HPM_P1;HPM_P2
2023/05/14 05:02:44;;;;;;;10.38;7.47;;;11.40;99.90;;;;;;5320326;23;20055;-70
2023/05/14 05:05:09;;;;;;;10.32;7.35;;;11.40;99.90;;;;;;4926599;29;20032;-69
2023/05/14 05:07:35;;;;;;;11.45;7.85;;;11.50;99.90;;;;;;4926580;29;20036;-72
2023/05/14 05:10:01;;;;;;;11.73;7.47;;;11.40;99.90;;;;;;4921308;29;20020;-72
2023/05/14 05:12:29;;;;;;;9.23;7.55;;;11.50;99.90;;;;;;4925925;29;20032;-71
2023/05/14 05:14:57;;;;;;;10.02;7.60;;;11.60;99.90;;;;;;4927017;29;20218;-71
2023/05/14 05:17:23;;;;;;;;;;;11.60;99.90;;;;;;4926869;29;20030;-69
2023/05/14 05:19:49;;;;;;;9.27;7.30;;;11.60;99.90;;;;;;4922834;29;19906;-69
2023/05/14 05:22:15;;;;;;;10.80;7.10;;;11.60;99.90;;;;;;4913727;29;20104;-71
2023/05/14 05:24:41;;;;;;;9.57;7.05;;;11.70;99.90;;;;;;4927163;29;20035;-70
2023/05/14 05:27:06;;;;;;;8.90;6.95;;;11.70;99.90;;;;;;4910315;29;20035;-69
2023/05/14 05:29:33;;;;;;;9.25;7.05;;;11.80;99.90;;;;;;4926324;29;20211;-69
2023/05/14 05:31:59;;;;;;;10.38;7.50;;;11.80;99.90;;;;;;4926633;29;20023;-70
2023/05/14 05:34:25;;;;;;;9.35;7.05;;;11.80;99.90;;;;;;4926488;29;20264;-69
2023/05/14 05:36:50;;;;;;;8.80;6.95;;;11.90;99.90;;;;;;4913568;29;20066;-70
2023/05/14 05:39:16;;;;;;;10.02;7.10;;;12.10;99.90;;;;;;4909947;29;20036;-70
2023/05/14 05:41:43;;;;;;;9.10;6.65;;;12.10;99.90;;;;;;4926746;29;20301;-70
2023/05/14 05:44:08;;;;;;;9.18;7.07;;;12.10;99.90;;;;;;4926619;29;20031;-70
2023/05/14 05:46:34;;;;;;;10.60;7.75;;;12.10;99.90;;;;;;4925927;29;20054;-70
2023/05/14 05:49:00;;;;;;;12.55;8.35;;;12.10;99.90;;;;;;4926712;29;20040;-70
2023/05/14 05:51:25;;;;;;;9.65;7.57;;;12.10;99.90;;;;;;4925997;29;20036;-70
2023/05/14 05:53:51;;;;;;;9.77;7.57;;;12.20;99.90;;;;;;4926745;29;20040;-69
2023/05/14 05:56:17;;;;;;;8.45;6.65;;;12.10;99.90;;;;;;4926698;29;20040;-70
2023/05/14 05:58:43;;;;;;;8.80;7.10;;;12.20;99.90;;;;;;4913249;29;20129;-69
2023/05/14 06:01:08;;;;;;;9.02;6.65;;;12.20;99.90;;;;;;4926547;29;20345;-69
2023/05/14 06:03:34;;;;;;;9.00;7.30;;;12.30;99.90;;;;;;4911870;29;20050;-70
2023/05/14 06:06:00;;;;;;;9.52;7.63;;;12.40;99.90;;;;;;4909672;29;20032;-69
2023/05/14 06:08:26;;;;;;;8.77;6.50;;;12.40;99.90;;;;;;4926026;29;20044;-69
2023/05/14 06:10:51;;;;;;;8.75;7.15;;;12.50;99.90;;;;;;4920475;29;20043;-69
2023/05/14 06:13:17;;;;;;;9.10;7.05;;;12.50;99.90;;;;;;4926108;29;20036;-69
2023/05/14 06:15:43;;;;;;;10.57;7.05;;;12.60;99.90;;;;;;4925573;29;20036;-69
2023/05/14 06:18:08;;;;;;;10.20;6.78;;;12.70;99.90;;;;;;4924894;29;20342;-69
2023/05/14 06:20:34;;;;;;;9.73;6.90;;;12.80;99.90;;;;;;4926012;29;20028;-69
2023/05/14 06:23:00;;;;;;;8.98;7.15;;;13.00;99.90;;;;;;4926025;29;20028;-69
2023/05/14 06:25:26;;;;;;;9.23;6.38;;;13.10;99.90;;;;;;4909263;29;20029;-70
2023/05/14 06:27:51;;;;;;;9.57;7.00;;;13.30;99.90;;;;;;4922255;29;20028;-69
2023/05/14 06:30:17;;;;;;;10.02;6.70;;;13.30;99.90;;;;;;4929901;29;20028;-72
2023/05/14 06:32:42;;;;;;;8.38;6.60;;;13.30;99.90;;;;;;4929506;29;20027;-69
2023/05/14 06:35:09;;;;;;;9.05;6.07;;;13.40;99.90;;;;;;4926395;29;20028;-70
2023/05/14 06:37:35;;;;;;;8.55;6.85;;;13.50;99.90;;;;;;4910692;29;20028;-70
2023/05/14 06:40:01;;;;;;;8.88;6.85;;;13.50;99.90;;;;;;4926663;29;20031;-70
2023/05/14 06:42:26;;;;;;;8.60;6.55;;;13.60;99.90;;;;;;4929010;29;20061;-71
2023/05/14 06:44:53;;;;;;;8.73;6.50;;;13.50;99.90;;;;;;4929499;29;20028;-70
2023/05/14 06:47:19;;;;;;;8.88;6.93;;;13.60;99.90;;;;;;4929992;29;20036;-68
2023/05/14 06:49:45;;;;;;;7.57;6.43;;;13.50;99.90;;;;;;4929508;29;20043;-69
2023/05/14 06:52:11;;;;;;;7.88;6.32;;;13.70;99.90;;;;;;4929476;29;20091;-69
2023/05/14 06:54:36;;;;;;;9.40;7.10;;;13.60;99.90;;;;;;4929377;29;20031;-69
2023/05/14 06:57:02;;;;;;;7.93;5.93;;;13.80;99.90;;;;;;4919693;29;20280;-68
2023/05/14 06:59:28;;;;;;;8.60;6.80;;;13.80;99.90;;;;;;4912310;29;20063;-68
2023/05/14 07:01:54;;;;;;;7.72;6.38;;;13.80;99.90;;;;;;4929167;29;20348;-69
2023/05/14 07:04:20;;;;;;;8.13;6.97;;;13.80;99.90;;;;;;4911615;29;20042;-70
2023/05/14 07:06:45;;;;;;;8.77;6.22;;;13.80;99.90;;;;;;4928812;29;20052;-69
2023/05/14 07:09:12;;;;;;;8.77;6.70;;;14.00;99.90;;;;;;4928108;29;20072;-70
2023/05/14 07:11:37;;;;;;;8.88;6.30;;;13.90;99.90;;;;;;4924092;29;20028;-75
2023/05/14 07:14:03;;;;;;;8.20;6.63;;;13.90;99.90;;;;;;4929330;29;20036;-73
2023/05/14 07:16:29;;;;;;;9.68;6.43;;;14.10;99.90;;;;;;4928658;29;20024;-71
2023/05/14 07:18:55;;;;;;;7.90;5.82;;;14.20;99.90;;;;;;4929143;29;20191;-74
2023/05/14 07:21:20;;;;;;;9.70;6.72;;;14.40;99.90;;;;;;4929293;29;20067;-73
2023/05/14 07:23:46;;;;;;;8.75;6.63;;;14.50;99.90;;;;;;4918144;29;20052;-72
2023/05/14 07:26:12;;;;;;;9.38;6.55;;;14.60;99.90;;;;;;4928797;29;20056;-71
2023/05/14 07:28:37;;;;;;;10.02;6.55;;;14.80;99.90;;;;;;4916014;29;20052;-72
2023/05/14 07:31:07;;;;;;;9.40;6.32;;;15.00;99.90;;;;;;4929162;29;20028;-74
2023/05/14 07:33:35;;;;;;;7.65;5.88;;;15.10;99.90;;;;;;4928319;29;20366;-73
2023/05/14 07:36:00;;;;;;;7.13;5.50;;;15.40;99.90;;;;;;4928334;29;20306;-75
2023/05/14 07:38:26;;;;;;;9.57;6.95;;;15.60;99.90;;;;;;4916362;29;20039;-73
2023/05/14 07:40:52;;;;;;;8.75;5.90;;;15.80;99.90;;;;;;4928709;29;20094;-73
2023/05/14 07:43:18;;;;;;;8.63;7.18;;;15.90;99.90;;;;;;4928275;29;20221;-72
2023/05/14 07:45:44;;;;;;;7.45;5.93;;;16.00;99.90;;;;;;4920893;29;20309;-74
2023/05/14 07:48:10;;;;;;;10.73;6.18;;;16.20;99.90;;;;;;4917826;29;20035;-74
2023/05/14 07:50:36;;;;;;;7.85;6.10;;;16.50;99.90;;;;;;4916061;29;20203;-73
2023/05/14 07:53:02;;;;;;;9.10;6.75;;;16.70;99.90;;;;;;4928388;29;20040;-74
2023/05/14 07:55:28;;;;;;;7.43;5.60;;;16.80;99.90;;;;;;4911040;29;20028;-75
2023/05/14 07:57:54;;;;;;;8.80;6.32;;;17.00;99.90;;;;;;4905164;29;20037;-72
2023/05/14 08:00:20;;;;;;;8.63;6.55;;;17.00;99.90;;;;;;4926413;29;20218;-75
2023/05/14 08:02:47;;;;;;;8.25;6.30;;;17.10;99.90;;;;;;4927424;29;20047;-76
2023/05/14 08:05:13;;;;;;;9.82;6.15;;;17.20;99.90;;;;;;4923559;29;20348;-73
2023/05/14 08:07:39;;;;;;;12.40;6.22;;;17.40;99.90;;;;;;4918787;29;20056;-72
2023/05/14 08:10:06;;;;;;;8.65;6.45;;;17.20;99.90;;;;;;4923575;29;20087;-75
2023/05/14 08:12:32;;;;;;;7.07;5.80;;;17.20;99.90;;;;;;4928470;29;20039;-72
2023/05/14 08:14:57;;;;;;;7.65;6.30;;;17.10;99.90;;;;;;4927920;29;20272;-71
2023/05/14 08:17:23;;;;;;;8.45;5.97;;;16.90;99.90;;;;;;4928103;29;20024;-68
2023/05/14 08:19:49;;;;;;;8.25;6.15;;;16.90;99.90;;;;;;4927517;29;20036;-68
2023/05/14 08:22:15;;;;;;;7.85;6.30;;;17.10;99.90;;;;;;4922708;29;20020;-70
2023/05/14 08:24:41;;;;;;;7.68;6.25;;;17.30;99.90;;;;;;4920107;29;20063;-71
2023/05/14 08:27:08;;;;;;;9.13;7.10;;;17.30;99.90;;;;;;4927971;29;20129;-69
2023/05/14 08:29:34;;;;;;;8.23;6.68;;;17.30;99.90;;;;;;4927136;29;20036;-69
2023/05/14 08:32:00;;;;;;;8.27;6.47;;;17.30;99.90;;;;;;4927631;29;20084;-70
2023/05/14 08:34:26;;;;;;;11.63;6.65;;;17.60;99.90;;;;;;4928060;29;20020;-70
2023/05/14 08:36:52;;;;;;;8.30;6.47;;;17.80;99.90;;;;;;4926219;29;20321;-69
2023/05/14 08:39:18;;;;;;;8.90;6.88;;;18.10;99.90;;;;;;4901880;29;20094;-71
2023/05/14 08:41:44;;;;;;;7.90;6.38;;;18.30;99.90;;;;;;4927242;29;20043;-72
2023/05/14 08:44:13;;;;;;;8.27;6.90;;;18.40;99.90;;;;;;4927529;29;20092;-71
2023/05/14 08:46:38;;;;;;;;;;;18.60;99.90;;;;;;4927354;29;20194;-70
2023/05/14 08:49:26;;;;;;;8.80;6.40;;;18.80;99.90;;;;;;4927378;29;19914;-70
2023/05/14 08:51:52;;;;;;;6.90;5.90;;;18.90;99.90;;;;;;4927020;29;20083;-69
2023/05/14 08:54:18;;;;;;;9.75;6.43;;;19.00;99.70;;;;;;4927140;29;20036;-69
2023/05/14 08:56:47;;;;;;;7.68;6.88;;;19.20;99.20;;;;;;4920764;29;20036;-69
2023/05/14 08:59:13;;;;;;;8.68;6.97;;;19.00;99.00;;;;;;4907531;29;20084;-69
2023/05/14 09:01:45;;;;;;;7.30;5.72;;;19.00;98.80;;;;;;4926241;29;20052;-68
2023/05/14 09:04:13;;;;;;;9.52;6.75;;;19.00;99.20;;;;;;4926068;29;20103;-68
2023/05/14 09:06:40;;;;;;;10.32;7.40;;;19.10;98.60;;;;;;4926673;29;20095;-69
2023/05/14 09:09:06;;;;;;;7.97;6.90;;;19.30;98.20;;;;;;4926594;29;20024;-70
2023/05/14 09:11:32;;;;;;;7.43;6.55;;;19.40;97.90;;;;;;4921033;29;20666;-69
2023/05/14 09:13:58;;;;;;;8.15;6.40;;;19.40;98.00;;;;;;4910286;29;20191;-69
2023/05/14 09:16:25;;;;;;;9.10;7.10;;;19.60;97.90;;;;;;4910465;29;20031;-70
2023/05/14 09:18:51;;;;;;;9.33;6.90;;;19.80;97.30;;;;;;4926507;29;20209;-69
2023/05/14 09:21:17;;;;;;;8.18;6.65;;;20.00;96.80;;;;;;4926869;29;20063;-70
2023/05/14 09:23:44;;;;;;;11.23;7.50;;;20.40;96.50;;;;;;4926177;29;20103;-70
2023/05/14 09:26:10;;;;;;;7.90;6.57;;;20.10;95.70;;;;;;4926752;29;20032;-70
2023/05/14 09:28:43;;;;;;;12.82;7.53;;;20.10;96.50;;;;;;4926510;29;20088;-69
2023/05/14 09:31:09;;;;;;;8.25;6.72;;;20.10;95.80;;;;;;4927172;29;20036;-71
2023/05/14 09:33:35;;;;;;;8.10;6.88;;;19.80;96.30;;;;;;4926281;29;20119;-70
2023/05/14 09:36:01;;;;;;;8.95;6.82;;;20.00;96.60;;;;;;4926603;29;20060;-70
2023/05/14 09:38:31;;;;;;;8.63;6.60;;;20.00;95.50;;;;;;4915946;29;20048;-70
2023/05/14 09:40:58;;;;;;;7.57;6.35;;;20.20;95.60;;;;;;4926518;29;20032;-70
2023/05/14 09:43:24;;;;;;;10.50;7.20;;;20.40;95.30;;;;;;4926580;29;20095;-69
2023/05/14 09:45:54;;;;;;;7.15;5.68;;;20.70;95.00;;;;;;4926434;29;20033;-69
2023/05/14 09:48:21;;;;;;;6.95;4.60;;;20.60;94.10;;;;;;4926506;29;20032;-69
2023/05/14 09:50:46;;;;;;;6.78;4.88;;;20.50;93.60;;;;;;4925959;29;20055;-71
2023/05/14 09:53:12;;;;;;;5.63;4.72;;;20.60;93.20;;;;;;4909234;29;20171;-69
2023/05/14 09:55:38;;;;;;;7.20;5.00;;;20.80;94.00;;;;;;4925935;29;20329;-69
2023/05/14 09:58:04;;;;;;;6.25;4.65;;;21.00;93.60;;;;;;4899289;29;20040;-71
2023/05/14 10:00:34;;;;;;;8.55;5.15;;;21.10;93.00;;;;;;4924314;29;20250;-69
2023/05/14 10:03:06;;;;;;;8.10;5.00;;;20.90;93.10;;;;;;4926333;29;20314;-68
2023/05/14 10:05:37;;;;;;;6.28;4.70;;;20.80;93.50;;;;;;4925660;29;20246;-69
2023/05/14 10:08:13;;;;;;;6.38;3.92;;;20.60;93.20;;;;;;4926582;29;20070;-68
2023/05/14 10:10:39;;;;;;;5.10;4.32;;;20.40;93.50;;;;;;4902555;29;20039;-70
2023/05/14 10:13:23;;;;;;;5.68;4.10;;;20.30;93.70;;;;;;4909489;29;20083;-70
2023/05/14 10:16:27;;;;;;;7.38;5.43;;;20.30;94.00;;;;;;4925917;29;20024;-70
2023/05/14 10:18:57;;;;;;;6.05;4.55;;;20.30;93.50;;;;;;4923278;29;20317;-70
2023/05/14 10:21:25;;;;;;;6.78;4.43;;;20.50;93.40;;;;;;4926043;29;20039;-70
2023/05/14 10:23:51;;;;;;;5.40;4.35;;;20.50;93.00;;;;;;4908923;29;20211;-69
2023/05/14 10:26:17;;;;;;;6.20;4.47;;;20.70;93.00;;;;;;4926306;29;20039;-70
2023/05/14 10:28:43;;;;;;;6.05;4.70;;;20.70;92.90;;;;;;4925873;29;20034;-70
2023/05/14 10:31:09;;;;;;;7.20;4.60;;;20.90;92.90;;;;;;4926448;29;20036;-69
2023/05/14 10:33:49;;;;;;;8.00;4.90;;;21.10;92.40;;;;;;4925574;29;20092;-69
2023/05/14 10:36:19;;;;;;;5.53;4.30;;;21.10;92.50;;;;;;4925986;29;20251;-69
2023/05/14 10:38:46;;;;;;;6.55;5.03;;;21.20;91.90;;;;;;4915195;29;20032;-69
2023/05/14 10:41:22;;;;;;;6.53;4.25;;;21.30;91.50;;;;;;4926372;29;20028;-70
2023/05/14 10:43:48;;;;;;;4.88;4.13;;;21.70;92.20;;;;;;4925156;29;20036;-71
2023/05/14 10:46:15;;;;;;;4.85;3.70;;;22.20;91.30;;;;;;4926150;29;20024;-69
2023/05/14 10:48:42;;;;;;;6.28;4.60;;;22.50;91.00;;;;;;4925266;29;20036;-70
2023/05/14 10:51:09;;;;;;;6.13;4.32;;;22.80;89.10;;;;;;4926036;29;20038;-70
2023/05/14 10:53:38;;;;;;;4.13;3.20;;;23.00;88.40;;;;;;4925806;29;20036;-71
2023/05/14 10:56:07;;;;;;;;;;;23.00;88.30;;;;;;4926276;29;20035;-70
2023/05/14 10:58:38;;;;;;;6.18;3.95;;;23.00;87.60;;;;;;4896892;29;19981;-70
2023/05/14 11:01:07;;;;;;;6.80;5.25;;;22.70;88.80;;;;;;4926022;29;20036;-68
2023/05/14 11:03:45;;;;;;;6.30;5.03;;;22.40;90.20;;;;;;4924697;29;20170;-69
2023/05/14 11:06:12;;;;;;;9.77;5.90;;;21.80;91.20;;;;;;4926278;29;20091;-70
2023/05/14 11:08:39;;;;;;;7.30;5.18;;;21.40;91.80;;;;;;4908642;29;20254;-69
2023/05/14 11:11:05;;;;;;;7.03;5.47;;;20.80;92.50;;;;;;4921560;29;20230;-69
2023/05/14 11:13:33;;;;;;;8.70;5.32;;;20.20;93.40;;;;;;4929445;29;20036;-69
2023/05/14 11:16:00;;;;;;;6.47;5.32;;;20.00;93.60;;;;;;4929127;29;20059;-69
2023/05/14 11:18:30;;;;;;;7.68;5.07;;;19.90;94.20;;;;;;4929334;29;20023;-69
2023/05/14 11:21:00;;;;;;;6.60;5.47;;;19.90;94.00;;;;;;4928702;29;20040;-70
2023/05/14 11:23:26;;;;;;;6.53;5.15;;;19.90;93.70;;;;;;4928836;29;20088;-71
2023/05/14 11:25:53;;;;;;;8.10;5.38;;;20.10;94.20;;;;;;4920576;29;20043;-70
2023/05/14 11:28:23;;;;;;;5.72;4.65;;;20.60;93.30;;;;;;4924284;29;20035;-70
2023/05/14 11:30:50;;;;;;;5.15;3.97;;;21.70;91.50;;;;;;4928614;29;20051;-71
2023/05/14 11:33:16;;;;;;;4.20;3.30;;;22.80;90.00;;;;;;4928626;29;20103;-69
2023/05/14 11:35:44;;;;;;;5.90;4.80;;;23.90;87.30;;;;;;4911706;29;20031;-68
2023/05/14 11:38:20;;;;;;;5.83;3.90;;;24.20;87.30;;;;;;4917541;29;20035;-69
2023/05/14 11:40:56;;;;;;;4.68;3.65;;;24.20;86.50;;;;;;4904050;29;20449;-69
2023/05/14 11:43:22;;;;;;;4.85;4.07;;;23.80;86.40;;;;;;4928864;29;20036;-70
2023/05/14 11:45:50;;;;;;;6.60;4.32;;;23.40;87.30;;;;;;4927968;29;20087;-70
2023/05/14 11:48:17;;;;;;;5.40;4.25;;;23.00;88.20;;;;;;4928859;29;20079;-69
2023/05/14 11:50:52;;;;;;;5.13;4.18;;;22.70;89.40;;;;;;4928335;29;20112;-69
2023/05/14 11:53:26;;;;;;;4.53;3.70;;;22.30;90.10;;;;;;4911871;29;20222;-68
2023/05/14 11:55:58;;;;;;;5.93;4.20;;;22.10;90.30;;;;;;4928007;29;20103;-70
2023/05/14 11:58:24;;;;;;;6.63;4.43;;;22.70;90.00;;;;;;4882695;29;20311;-70
2023/05/14 12:00:52;;;;;;;4.50;3.50;;;24.30;87.20;;;;;;4928040;29;20136;-70
2023/05/14 12:03:25;;;;;;;4.73;3.70;;;26.10;83.60;;;;;;4927183;29;20326;-73
2023/05/14 12:05:58;;;;;;;4.50;3.80;;;27.80;79.90;;;;;;4927867;29;20032;-70
2023/05/14 12:08:31;;;;;;;4.65;3.80;;;27.60;77.70;;;;;;4928558;29;20040;-69
2023/05/14 12:10:58;;;;;;;5.03;4.07;;;26.20;79.20;;;;;;4921907;29;20028;-68
2023/05/14 12:13:26;;;;;;;5.20;4.07;;;25.60;80.00;;;;;;4928378;29;20044;-69
2023/05/14 12:15:57;;;;;;;5.28;3.95;;;24.80;82.50;;;;;;4927384;29;20283;-69
2023/05/14 12:18:30;;;;;;;5.07;3.53;;;24.30;83.60;;;;;;4895768;29;20390;-69
2023/05/14 12:21:02;;;;;;;4.68;3.60;;;23.90;84.00;;;;;;4927206;29;20103;-69
2023/05/14 12:23:30;;;;;;;4.93;2.95;;;23.70;83.30;;;;;;4927520;29;20052;-70
2023/05/14 12:26:07;;;;;;;4.57;3.13;;;23.50;84.80;;;;;;4927469;29;20036;-70
2023/05/14 12:28:34;;;;;;;4.55;3.35;;;24.10;82.80;;;;;;4889462;29;20690;-70
2023/05/14 12:31:00;;;;;;;5.43;3.72;;;24.30;81.50;;;;;;4915412;29;20033;-70
2023/05/14 12:33:26;;;;;;;4.13;2.90;;;25.40;81.20;;;;;;4926103;29;20313;-70
2023/05/14 12:35:53;;;;;;;4.50;2.88;;;25.90;78.50;;;;;;4919056;29;20059;-74
2023/05/14 12:38:19;;;;;;;3.92;2.95;;;26.80;75.80;;;;;;4909091;29;20039;-73
2023/05/14 12:40:45;;;;;;;3.95;2.38;;;26.90;74.90;;;;;;4927248;29;20036;-73
2023/05/14 12:43:10;;;;;;;3.65;2.10;;;28.00;74.10;;;;;;4927641;29;20036;-72
2023/05/14 12:45:36;;;;;;;3.10;2.25;;;29.90;70.70;;;;;;4915115;29;20039;-73
2023/05/14 12:48:02;;;;;;;2.92;2.03;;;31.50;70.10;;;;;;4927365;29;20771;-72
2023/05/14 12:50:28;;;;;;;3.25;2.47;;;32.00;65.60;;;;;;4927491;29;20032;-72
2023/05/14 12:52:53;;;;;;;3.50;2.17;;;31.80;65.50;;;;;;4926680;29;20095;-73
2023/05/14 12:55:19;;;;;;;3.40;2.80;;;32.80;64.90;;;;;;4927083;29;20035;-72
2023/05/14 12:57:45;;;;;;;4.43;2.97;;;32.30;62.80;;;;;;4923265;29;20036;-73
2023/05/14 13:00:11;;;;;;;6.63;3.65;;;30.80;63.00;;;;;;4927445;29;20059;-72
2023/05/14 13:02:37;;;;;;;3.38;2.53;;;30.10;64.70;;;;;;4917709;29;20044;-72
2023/05/14 13:05:03;;;;;;;3.17;2.10;;;30.80;64.90;;;;;;4926559;29;20277;-73
2023/05/14 13:07:29;;;;;;;3.80;1.80;;;31.50;64.10;;;;;;4919606;29;20091;-72
2023/05/14 13:09:55;;;;;;;2.92;2.08;;;30.50;62.30;;;;;;4916087;29;20028;-73
2023/05/14 13:12:22;;;;;;;3.63;1.95;;;28.70;64.40;;;;;;4921551;29;20036;-73
2023/05/14 13:14:48;;;;;;;2.45;2.00;;;27.00;65.60;;;;;;4926782;29;20050;-72
2023/05/14 13:17:14;;;;;;;3.28;2.55;;;25.90;68.00;;;;;;4927051;29;20024;-73
2023/05/14 13:19:39;;;;;;;3.50;2.30;;;25.50;69.20;;;;;;4927074;29;20036;-72
2023/05/14 13:22:05;;;;;;;4.63;2.88;;;25.00;71.00;;;;;;4926839;29;20036;-73
2023/05/14 13:24:31;;;;;;;4.60;2.65;;;24.70;71.30;;;;;;4926677;29;20067;-72
2023/05/14 13:26:57;;;;;;;3.65;2.78;;;24.50;72.10;;;;;;4905558;29;20346;-73
2023/05/14 13:29:22;;;;;;;3.53;2.28;;;24.50;73.00;;;;;;4920263;29;20139;-73
2023/05/14 13:31:48;;;;;;;3.92;2.47;;;26.40;70.90;;;;;;4916983;29;20031;-72
2023/05/14 13:34:14;;;;;;;5.28;2.50;;;27.00;69.50;;;;;;4926272;29;20032;-73
2023/05/14 13:36:42;;;;;;;4.65;2.78;;;25.90;70.80;;;;;;4918189;29;20234;-71
2023/05/14 13:39:10;;;;;;;4.10;2.88;;;25.20;72.00;;;;;;4910012;29;20041;-73
2023/05/14 13:41:37;;;;;;;4.10;2.60;;;24.70;73.30;;;;;;4909846;29;20050;-72
2023/05/14 13:44:03;;;;;;;3.63;2.70;;;24.00;73.80;;;;;;4909202;29;20083;-73
2023/05/14 13:46:29;;;;;;;3.70;2.88;;;23.60;75.70;;;;;;4926688;29;20070;-73
2023/05/14 13:48:54;;;;;;;3.97;2.80;;;23.20;76.40;;;;;;4926002;29;20032;-73
2023/05/14 13:51:21;;;;;;;4.57;2.50;;;23.20;76.70;;;;;;4926824;29;20024;-73
2023/05/14 13:53:47;;;;;;;4.00;2.67;;;22.90;76.70;;;;;;4926212;29;20047;-74
2023/05/14 13:56:13;;;;;;;3.83;2.50;;;23.10;76.00;;;;;;4926472;29;20028;-72
2023/05/14 13:58:38;;;;;;;5.20;2.80;;;23.30;75.90;;;;;;4916273;29;20032;-75
2023/05/14 14:01:04;;;;;;;4.28;2.53;;;23.60;75.40;;;;;;4925928;29;20023;-73
2023/05/14 14:03:30;;;;;;;3.88;3.00;;;23.50;75.10;;;;;;4926358;29;20052;-74
2023/05/14 14:05:56;;;;;;;4.10;2.85;;;23.70;74.80;;;;;;4925973;29;20184;-74
2023/05/14 14:08:21;;;;;;;3.95;2.70;;;23.60;75.40;;;;;;4924731;29;20024;-74
2023/05/14 14:10:47;;;;;;;3.65;2.67;;;24.00;76.20;;;;;;4914531;29;20079;-75
2023/05/14 14:13:13;;;;;;;3.28;2.60;;;24.30;75.30;;;;;;4926261;29;20034;-75
2023/05/14 14:15:39;;;;;;;4.07;2.80;;;24.40;74.10;;;;;;4926707;29;20040;-76
2023/05/14 14:18:04;;;;;;;3.20;2.45;;;24.60;73.80;;;;;;4926129;29;20025;-75
2023/05/14 14:20:31;;;;;;;5.20;2.50;;;24.50;74.30;;;;;;4926556;29;20087;-76
2023/05/14 14:22:56;;;;;;;4.07;2.70;;;24.50;74.60;;;;;;4925710;29;20040;-75
2023/05/14 14:25:22;;;;;;;3.25;2.50;;;24.50;74.50;;;;;;4926554;29;20016;-74
2023/05/14 14:27:49;;;;;;;5.65;2.83;;;24.90;74.20;;;;;;4916357;29;20051;-75
2023/05/14 14:30:15;;;;;;;3.42;2.40;;;25.00;73.30;;;;;;4923731;29;20044;-74
2023/05/14 14:32:48;;;;;;;3.80;2.42;;;25.20;71.20;;;;;;4926012;29;20382;-70
2023/05/14 14:35:15;;;;;;;3.53;2.40;;;25.10;72.50;;;;;;4926353;29;20028;-71
2023/05/14 14:37:44;;;;;;;3.10;2.20;;;25.30;71.30;;;;;;4925985;29;20032;-71
2023/05/14 14:40:10;;;;;;;3.47;2.05;;;25.30;70.60;;;;;;4925739;29;20360;-71
2023/05/14 14:42:36;;;;;;;4.50;2.20;;;25.40;69.90;;;;;;4926270;29;20036;-71
2023/05/14 14:45:06;;;;;;;2.85;2.13;;;25.50;69.80;;;;;;4925755;29;20087;-71
2023/05/14 14:47:32;;;;;;;3.25;1.98;;;27.00;67.30;;;;;;4921594;29;20314;-71
2023/05/14 14:49:58;;;;;;;2.97;1.70;;;27.60;67.20;;;;;;4925420;29;20083;-70
2023/05/14 14:52:24;;;;;;;3.05;1.88;;;29.00;64.70;;;;;;4930014;29;20020;-69
2023/05/14 14:54:50;;;;;;;2.63;1.95;;;29.60;62.90;;;;;;4929349;29;20035;-71
2023/05/14 14:57:16;;;;;;;2.95;1.90;;;29.90;61.90;;;;;;4902307;29;20037;-72
2023/05/14 14:59:42;;;;;;;2.72;1.95;;;31.50;61.20;;;;;;4915289;29;20032;-72
2023/05/14 15:02:08;;;;;;;2.47;1.63;;;33.80;58.90;;;;;;4901933;29;20346;-73
2023/05/14 15:04:35;;;;;;;3.80;1.60;;;34.60;57.00;;;;;;4891724;29;20098;-71
2023/05/14 15:07:01;;;;;;;2.65;1.75;;;33.60;57.10;;;;;;4890906;29;20040;-71
2023/05/14 15:09:27;;;;;;;2.65;1.70;;;33.50;57.40;;;;;;4888658;29;20034;-72
2023/05/14 15:11:52;;;;;;;3.38;1.58;;;33.00;57.30;;;;;;4888509;29;20048;-70
2023/05/14 15:14:18;;;;;;;2.15;1.33;;;32.80;58.10;;;;;;4891722;29;20323;-71
2023/05/14 15:16:44;;;;;;;2.47;1.67;;;32.40;58.00;;;;;;4882042;29;20060;-71
2023/05/14 15:19:09;;;;;;;2.28;1.55;;;30.90;58.70;;;;;;4880157;29;20077;-70
2023/05/14 15:21:35;;;;;;;6.68;2.30;;;28.70;61.20;;;;;;4863855;29;20108;-70
2023/05/14 15:24:04;;;;;;;4.40;2.30;;;26.70;68.10;;;;;;4880111;29;20037;-69
2023/05/14 15:26:30;;;;;;;6.43;2.85;;;24.40;79.50;;;;;;4891536;29;20108;-70
2023/05/14 15:28:57;;;;;;;4.32;2.92;;;23.00;81.80;;;;;;4872133;29;20018;-69
2023/05/14 15:31:23;;;;;;;4.18;2.72;;;21.80;83.90;;;;;;4883813;29;20044;-70
2023/05/14 15:33:51;;;;;;;5.28;2.92;;;20.90;89.80;;;;;;4887667;29;20075;-69
2023/05/14 15:36:16;;;;;;;5.80;2.80;;;20.20;89.30;;;;;;4873421;29;20053;-69
2023/05/14 15:38:42;;;;;;;5.13;2.33;;;20.00;91.50;;;;;;4889346;29;20092;-69
2023/05/14 15:41:08;;;;;;;4.43;2.80;;;19.90;92.80;;;;;;4891035;29;20025;-71
2023/05/14 15:43:34;;;;;;;3.63;2.40;;;19.90;93.90;;;;;;4870969;29;20025;-71
2023/05/14 15:46:00;;;;;;;4.35;2.83;;;20.00;94.10;;;;;;4890505;29;20093;-69
2023/05/14 15:48:25;;;;;;;3.72;2.67;;;20.10;92.60;;;;;;4883355;29;20029;-70
2023/05/14 15:50:52;;;;;;;4.40;2.65;;;20.20;93.20;;;;;;4874482;29;20033;-70
2023/05/14 15:53:17;;;;;;;4.85;3.53;;;20.20;92.80;;;;;;4878980;29;20049;-70
2023/05/14 15:55:43;;;;;;;3.97;2.70;;;20.10;92.20;;;;;;4888411;29;20060;-71
2023/05/14 15:58:09;;;;;;;4.28;3.15;;;20.10;91.80;;;;;;4873074;29;20029;-70
2023/05/14 16:00:35;;;;;;;6.70;3.30;;;20.60;92.50;;;;;;4881461;29;20052;-73
2023/05/14 16:03:00;;;;;;;5.50;3.08;;;21.80;90.80;;;;;;4899556;29;20075;-69
2023/05/14 16:05:26;;;;;;;3.47;2.72;;;22.50;88.90;;;;;;4916319;29;20032;-70
2023/05/14 16:07:52;;;;;;;3.88;2.30;;;23.20;88.30;;;;;;4916889;29;20036;-69
2023/05/14 16:10:19;;;;;;;3.45;2.42;;;24.20;86.40;;;;;;4913588;29;20024;-70
2023/05/14 16:12:45;;;;;;;4.20;2.93;;;26.00;81.40;;;;;;4928135;29;20378;-70
2023/05/14 16:15:11;;;;;;;3.63;2.70;;;28.30;76.80;;;;;;4927653;29;20032;-73
2023/05/14 16:17:37;;;;;;;3.30;2.13;;;30.30;70.80;;;;;;4928127;29;20071;-71
2023/05/14 16:20:04;;;;;;;2.72;2.10;;;31.60;68.40;;;;;;4927374;29;20221;-75
2023/05/14 16:22:31;;;;;;;2.75;2.30;;;32.00;65.10;;;;;;4917830;29;20106;-75
2023/05/14 16:24:57;;;;;;;3.05;2.28;;;32.20;62.90;;;;;;4904624;29;20063;-75
2023/05/14 16:27:23;;;;;;;3.78;2.13;;;32.90;61.80;;;;;;4926102;29;20040;-71
2023/05/14 16:29:49;;;;;;;2.63;1.83;;;32.90;61.20;;;;;;4927690;29;20024;-72
2023/05/14 16:32:15;;;;;;;2.55;1.83;;;33.10;60.40;;;;;;4927131;29;20344;-70
2023/05/14 16:34:46;;;;;;;2.75;2.15;;;33.00;60.00;;;;;;4927625;29;20063;-71
2023/05/14 16:37:12;;;;;;;2.67;2.08;;;32.70;59.40;;;;;;4910501;29;20043;-71
2023/05/14 16:39:38;;;;;;;3.05;2.30;;;32.30;58.50;;;;;;4917124;29;20218;-74
2023/05/14 16:42:04;;;;;;;5.80;2.42;;;30.80;60.20;;;;;;4924527;29;20028;-73
2023/05/14 16:44:30;;;;;;;3.65;2.67;;;29.20;64.40;;;;;;4927372;29;20048;-73
2023/05/14 16:46:56;;;;;;;2.63;2.20;;;28.00;64.70;;;;;;4927749;29;20068;-74
2023/05/14 16:49:22;;;;;;;4.38;2.38;;;26.90;65.70;;;;;;4910299;29;20025;-72
2023/05/14 16:51:47;;;;;;;4.55;2.65;;;26.10;67.50;;;;;;4918790;29;20059;-73
2023/05/14 16:54:13;;;;;;;5.20;2.65;;;25.80;70.90;;;;;;4926775;29;20051;-71
2023/05/14 16:56:39;;;;;;;4.28;2.45;;;25.50;71.90;;;;;;4923565;29;20076;-73
2023/05/14 16:59:06;;;;;;;4.57;2.40;;;25.00;70.40;;;;;;4916372;29;20083;-73
2023/05/14 17:01:32;;;;;;;3.33;2.40;;;24.70;72.10;;;;;;4926400;29;20055;-71
2023/05/14 17:03:58;;;;;;;3.65;2.35;;;24.30;72.50;;;;;;4927043;29;20051;-71
2023/05/14 17:06:24;;;;;;;6.95;2.63;;;23.90;73.10;;;;;;4927260;29;20060;-71
2023/05/14 17:08:50;;;;;;;3.08;2.28;;;23.80;71.20;;;;;;4925824;29;20023;-71
2023/05/14 17:11:15;;;;;;;3.15;2.00;;;23.50;72.10;;;;;;4894442;29;20032;-69
2023/05/14 17:13:41;;;;;;;4.35;2.17;;;23.00;73.00;;;;;;4925933;29;20084;-70
2023/05/14 17:16:06;;;;;;;4.43;2.30;;;22.50;73.60;;;;;;4926657;29;20067;-70
2023/05/14 17:18:32;;;;;;;4.00;2.60;;;22.00;74.70;;;;;;4927102;29;20087;-70
2023/05/14 17:20:58;;;;;;;4.30;2.90;;;21.50;77.30;;;;;;4926600;29;20084;-69
2023/05/14 17:23:24;;;;;;;3.90;2.35;;;21.20;77.80;;;;;;4926610;29;20258;-71
2023/05/14 17:25:50;;;;;;;3.90;2.60;;;20.70;79.10;;;;;;4926734;29;20042;-71
2023/05/14 17:28:15;;;;;;;4.50;2.80;;;20.40;78.70;;;;;;4926249;29;20039;-70
2023/05/14 17:30:41;;;;;;;5.05;2.90;;;20.20;79.20;;;;;;4918608;29;20040;-70
2023/05/14 17:33:07;;;;;;;5.63;3.28;;;20.00;80.60;;;;;;4872349;29;20036;-71
2023/05/14 17:35:35;;;;;;;4.63;3.10;;;19.90;80.90;;;;;;4888933;29;20076;-71
2023/05/14 17:38:02;;;;;;;5.72;3.17;;;20.10;78.80;;;;;;4889041;29;20045;-73
2023/05/14 17:40:27;;;;;;;4.63;3.05;;;20.10;79.70;;;;;;4889152;29;20040;-71
2023/05/14 17:42:53;;;;;;;6.05;3.85;;;20.90;77.40;;;;;;4889214;29;20110;-72
2023/05/14 17:45:22;;;;;;;6.10;3.58;;;21.90;75.60;;;;;;4888397;29;20245;-71
2023/05/14 17:47:50;;;;;;;4.53;3.08;;;21.80;76.20;;;;;;4885039;29;20283;-72